Bluffs, Illinois
Current Conditions -  °F | °C
As of 11:55 AM on Saturday 22 Nov 2014 (Local Time) from KPPQ Reporting Station
Overcast Overcast  
Wind Chill: 58°   Ceiling: 2100
Heat Index: 58°   Visibility: 10mi
Dew Point: 49°   Wind: 15mph
Humidity: 70%   Direction: 200°SSW
Pressure: 29.96"   Gusts: 24mph
Location:  39.75°N, 90.54°W
Report Text: KPPQ 221755Z AUTO 20013G21KT 10SM BKN021 OVC049 15/09 A2996 RMK AO2 T01470092 10147 20067 PWINO
Loading
Personal Weather Stations






























Interactive Weather Map New forecast layout! Learn more

10-Day Weather Forecast

Advertisements
Track Severe Weather on mobile